Time;durP1;ratioP1;P1;durP2;ratioP2;P2;SDS_P1;SDS_P2;PMS_P1;PMS_P2;Temp;Humidity;BMP_temperature;BMP_pressure;BME280_temperature;BME280_humidity;BME280_pressure;Samples;Min_cycle;Max_cycle;Signal;HPM_P1;HPM_P2
2023/04/26 00:00:34;;;;;;;11.18;4.32;;;;;;;2.92;92.93;101645.38;4974752;28;20037;-72
2023/04/26 00:02:59;;;;;;;9.23;4.05;;;;;;;2.91;93.19;101643.69;4982913;28;20060;-73
2023/04/26 00:05:25;;;;;;;10.40;3.90;;;;;;;2.89;93.16;101640.41;4986419;28;20144;-73
2023/04/26 00:07:52;;;;;;;14.23;4.30;;;;;;;2.89;92.95;101645.53;4994953;28;20035;-73
2023/04/26 00:10:17;;;;;;;11.68;4.47;;;;;;;2.85;93.06;101646.63;4983939;28;20129;-72
2023/04/26 00:12:43;;;;;;;8.98;4.65;;;;;;;2.82;92.91;101640.84;4982705;28;20078;-72
2023/04/26 00:15:09;;;;;;;7.50;3.72;;;;;;;2.79;93.37;101634.16;4966458;28;20080;-72
2023/04/26 00:17:35;;;;;;;9.55;4.38;;;;;;;2.76;93.08;101636.88;4984849;28;20049;-73
2023/04/26 00:20:01;;;;;;;10.25;4.93;;;;;;;2.73;93.80;101640.44;4998823;28;20042;-72
2023/04/26 00:22:27;;;;;;;8.35;3.90;;;;;;;2.71;93.81;101628.59;4984380;28;20477;-73
2023/04/26 00:24:53;;;;;;;11.98;4.00;;;;;;;2.70;93.53;101629.53;4980686;28;20049;-73
2023/04/26 00:27:18;;;;;;;10.15;3.88;;;;;;;2.68;93.59;101628.78;4981597;28;20112;-72
2023/04/26 00:29:44;;;;;;;7.65;3.83;;;;;;;2.64;93.51;101624.75;4999458;28;20130;-73
2023/04/26 00:32:10;;;;;;;14.43;5.35;;;;;;;2.62;93.87;101632.53;4985091;28;20038;-72
2023/04/26 00:34:36;;;;;;;12.32;4.82;;;;;;;2.58;93.94;101628.47;4998510;28;20778;-72
2023/04/26 00:37:04;;;;;;;8.10;3.88;;;;;;;2.55;94.04;101631.19;4969939;28;20061;-72
2023/04/26 00:39:30;;;;;;;9.57;4.30;;;;;;;2.51;93.98;101622.03;4980746;28;20116;-73
2023/04/26 00:41:56;;;;;;;11.07;4.55;;;;;;;2.45;94.53;101628.31;4990120;28;20667;-72
2023/04/26 00:44:21;;;;;;;6.97;4.18;;;;;;;2.44;94.31;101631.78;4986278;28;20121;-72
2023/04/26 00:46:48;;;;;;;8.00;4.55;;;;;;;2.40;94.54;101627.72;4968668;28;20145;-72
2023/04/26 00:49:15;;;;;;;13.63;4.80;;;;;;;2.36;94.88;101618.56;4985056;28;20034;-72
2023/04/26 00:51:44;;;;;;;9.25;4.78;;;;;;;2.33;94.90;101623.84;4968690;28;20030;-72
2023/04/26 00:54:11;;;;;;;14.15;5.30;;;;;;;2.29;94.98;101623.19;4982433;28;20042;-72
2023/04/26 00:56:38;;;;;;;17.35;4.85;;;;;;;2.27;95.02;101627.56;4999211;28;20536;-72
2023/04/26 00:59:04;;;;;;;9.95;4.18;;;;;;;2.25;95.22;101621.69;4982372;28;20401;-72
2023/04/26 01:01:29;;;;;;;12.60;5.82;;;;;;;2.20;94.95;101626.22;4981707;28;20033;-72
2023/04/26 01:03:55;;;;;;;13.90;4.22;;;;;;;2.17;95.36;101617.88;4983514;28;20504;-72
2023/04/26 01:06:21;;;;;;;12.15;4.35;;;;;;;2.10;95.13;101631.00;4984556;28;20492;-72
2023/04/26 01:08:50;;;;;;;13.27;4.90;;;;;;;2.05;95.14;101625.28;4970662;28;20034;-73
2023/04/26 01:11:16;;;;;;;12.10;4.15;;;;;;;2.02;95.52;101629.78;4985890;28;20499;-72
2023/04/26 01:13:42;;;;;;;11.10;4.80;;;;;;;1.95;95.78;101631.81;4985546;28;20563;-72
2023/04/26 01:16:08;;;;;;;9.00;4.93;;;;;;;1.88;95.77;101626.19;4986631;28;20065;-72
2023/04/26 01:18:34;;;;;;;11.95;4.75;;;;;;;1.84;95.71;101632.34;4987149;28;20085;-72
2023/04/26 01:20:59;;;;;;;11.57;4.72;;;;;;;1.83;96.19;101640.09;5003246;28;20022;-72
2023/04/26 01:23:27;;;;;;;10.05;4.90;;;;;;;1.84;96.27;101642.59;4966838;28;20053;-73
2023/04/26 01:25:55;;;;;;;11.63;5.45;;;;;;;1.83;96.33;101635.84;4982505;23;20093;-70
2023/04/26 01:28:20;;;;;;;14.07;5.45;;;;;;;1.83;96.38;101635.84;5000195;28;20133;-70
2023/04/26 01:30:46;;;;;;;14.30;4.88;;;;;;;1.80;96.52;101640.28;5002326;28;20663;-70
2023/04/26 01:33:11;;;;;;;8.73;4.60;;;;;;;1.78;96.56;101636.97;4981048;28;20044;-71
2023/04/26 01:35:37;;;;;;;13.73;5.53;;;;;;;1.75;96.87;101641.34;4996638;28;20045;-70
2023/04/26 01:38:03;;;;;;;13.32;5.38;;;;;;;1.73;96.55;101648.28;4994496;28;20031;-70
2023/04/26 01:40:28;;;;;;;9.85;5.70;;;;;;;1.70;96.58;101630.53;4989953;28;20060;-70
2023/04/26 01:42:54;;;;;;;12.98;5.55;;;;;;;1.67;96.58;101633.22;5016361;28;20080;-70
2023/04/26 01:45:19;;;;;;;11.90;5.38;;;;;;;1.61;96.53;101627.59;5005022;28;20034;-70
2023/04/26 01:48:03;;;;;;;9.10;5.30;;;;;;;1.51;96.47;101630.63;5010863;28;20052;-70
2023/04/26 01:50:31;;;;;;;14.50;6.05;;;;;;;1.46;96.93;101624.91;4998716;28;20022;-71
2023/04/26 01:52:56;;;;;;;11.45;4.60;;;;;;;1.47;97.02;101630.84;4984542;28;20044;-70
2023/04/26 01:55:21;;;;;;;17.55;5.65;;;;;;;1.47;97.04;101630.84;5014549;28;20045;-70
2023/04/26 01:57:47;;;;;;;14.18;5.47;;;;;;;1.48;97.15;101632.50;4995589;28;20054;-70
2023/04/26 02:00:13;;;;;;;16.25;5.65;;;;;;;1.46;97.50;101636.88;4996347;28;20036;-70
2023/04/26 02:02:41;;;;;;;14.20;6.28;;;;;;;1.47;97.70;101641.06;4988721;28;20041;-70
2023/04/26 02:05:09;;;;;;;16.75;6.00;;;;;;;1.44;97.66;101636.94;5017471;28;20034;-70
2023/04/26 02:07:35;;;;;;;12.43;6.60;;;;;;;1.42;97.66;101641.31;4987962;28;20559;-70
2023/04/26 02:10:00;;;;;;;12.35;5.47;;;;;;;1.40;97.65;101637.19;4994172;28;20039;-70
2023/04/26 02:12:26;;;;;;;13.63;5.60;;;;;;;1.37;98.15;101638.13;4987131;28;20026;-70
2023/04/26 02:14:52;;;;;;;16.85;5.80;;;;;;;1.36;98.20;101645.00;4995248;28;20053;-70
2023/04/26 02:17:17;;;;;;;14.23;5.75;;;;;;;1.35;98.25;101635.66;5000331;28;20057;-70
2023/04/26 02:19:42;;;;;;;17.80;8.65;;;;;;;1.32;98.33;101629.91;4997755;28;20051;-70
2023/04/26 02:22:08;;;;;;;13.45;6.00;;;;;;;1.30;98.52;101629.97;5013299;28;20400;-70
2023/04/26 02:24:33;;;;;;;9.70;5.75;;;;;;;1.25;98.41;101628.53;5003909;28;20252;-71
2023/04/26 02:27:02;;;;;;;16.52;5.70;;;;;;;1.22;98.52;101626.94;5018026;28;20033;-70
2023/04/26 02:29:28;;;;;;;16.52;5.55;;;;;;;1.21;98.20;101629.59;4997134;28;20527;-70
2023/04/26 02:31:54;;;;;;;11.27;5.95;;;;;;;1.17;98.39;101624.63;4987707;28;20076;-70
2023/04/26 02:34:20;;;;;;;14.82;6.68;;;;;;;1.15;98.01;101623.06;4997835;28;20558;-70
2023/04/26 02:36:45;;;;;;;12.23;5.57;;;;;;;1.10;98.04;101633.47;5006142;28;20155;-70
2023/04/26 02:39:11;;;;;;;13.43;6.28;;;;;;;1.08;98.38;101626.81;5002713;28;20037;-70
2023/04/26 02:41:37;;;;;;;15.35;5.72;;;;;;;1.05;98.28;101627.75;5014065;28;20029;-70
2023/04/26 02:44:03;;;;;;;15.32;6.15;;;;;;;1.04;98.10;101627.88;5003135;28;20052;-70
2023/04/26 02:46:29;;;;;;;16.25;6.28;;;;;;;1.04;98.41;101625.31;4985602;28;20074;-70
2023/04/26 02:48:54;;;;;;;17.45;5.97;;;;;;;1.02;98.50;101635.59;5016959;28;20046;-70
2023/04/26 02:51:20;;;;;;;15.27;6.50;;;;;;;1.01;98.90;101628.00;4993251;28;20026;-70
2023/04/26 02:53:45;;;;;;;13.00;6.35;;;;;;;0.99;98.36;101632.34;5000539;28;20041;-70
2023/04/26 02:56:11;;;;;;;12.82;5.90;;;;;;;0.95;98.96;101631.69;4986759;28;20034;-70
2023/04/26 02:58:36;;;;;;;15.43;6.63;;;;;;;0.88;99.00;101631.13;5004323;28;20157;-70
2023/04/26 03:01:03;;;;;;;15.73;7.50;;;;;;;0.84;98.69;101628.81;5003643;28;20495;-70
2023/04/26 03:03:29;;;;;;;13.50;6.78;;;;;;;0.81;98.64;101624.69;5003581;28;20034;-70
2023/04/26 03:05:55;;;;;;;17.58;6.88;;;;;;;0.78;99.12;101620.53;5006627;28;20030;-70
2023/04/26 03:08:21;;;;;;;14.93;6.40;;;;;;;0.78;99.32;101619.72;5002448;28;20030;-70
2023/04/26 03:10:48;;;;;;;17.40;7.47;;;;;;;0.77;99.92;101618.03;4997600;28;20042;-70
2023/04/26 03:13:14;;;;;;;13.45;7.10;;;;;;;0.77;99.93;101620.59;5001344;28;20381;-70
2023/04/26 03:15:43;;;;;;;15.05;7.55;;;;;;;0.74;100.00;101611.34;5015953;28;20416;-70
2023/04/26 03:18:09;;;;;;;16.70;7.60;;;;;;;0.71;100.00;101618.34;5013838;28;20045;-70
2023/04/26 03:20:34;;;;;;;17.08;7.88;;;;;;;0.66;100.00;101608.34;4985423;28;20030;-70
2023/04/26 03:23:00;;;;;;;17.02;7.05;;;;;;;0.63;100.00;101607.66;4995959;28;20038;-70
2023/04/26 03:25:26;;;;;;;18.45;7.82;;;;;;;0.59;100.00;101609.53;5004622;28;20038;-70
2023/04/26 03:27:52;;;;;;;14.80;7.05;;;;;;;0.55;100.00;101608.84;5002753;28;20030;-70
2023/04/26 03:30:18;;;;;;;15.15;7.20;;;;;;;0.53;100.00;101600.44;5000378;28;20045;-70
2023/04/26 03:32:44;;;;;;;17.88;7.97;;;;;;;0.48;100.00;101599.81;5014877;28;20041;-70
2023/04/26 03:35:09;;;;;;;14.85;7.60;;;;;;;0.47;100.00;101593.06;5012709;28;20037;-69
2023/04/26 03:37:38;;;;;;;18.80;7.47;;;;;;;0.49;100.00;101592.97;5005088;28;20035;-69
2023/04/26 03:40:07;;;;;;;16.05;7.32;;;;;;;0.49;100.00;101595.53;4985380;28;20635;-69
2023/04/26 03:42:33;;;;;;;16.33;7.75;;;;;;;0.49;100.00;101596.38;5004007;28;20038;-70
2023/04/26 03:44:58;;;;;;;15.40;7.68;;;;;;;0.49;100.00;101598.09;5002473;28;20042;-70
2023/04/26 03:47:24;;;;;;;16.90;7.75;;;;;;;0.51;100.00;101601.38;5021761;28;20045;-70
2023/04/26 03:49:50;;;;;;;25.73;7.65;;;;;;;0.50;100.00;101597.19;5000451;28;20153;-70
2023/04/26 03:52:15;;;;;;;16.23;7.68;;;;;;;0.47;100.00;101587.13;5001726;28;20045;-70
2023/04/26 03:54:41;;;;;;;17.77;7.82;;;;;;;0.44;100.00;101600.84;4998190;28;20831;-69
2023/04/26 03:57:06;;;;;;;19.73;7.35;;;;;;;0.41;100.00;101598.44;4986830;28;20107;-69
2023/04/26 03:59:32;;;;;;;18.45;7.78;;;;;;;0.43;100.00;101604.28;4982768;28;20519;-70
2023/04/26 04:01:58;;;;;;;21.55;8.45;;;;;;;0.37;100.00;101612.25;4998620;28;20026;-69
2023/04/26 04:04:23;;;;;;;20.63;8.18;;;;;;;0.33;100.00;101609.00;4997618;28;20034;-70
2023/04/26 04:06:50;;;;;;;19.05;7.20;;;;;;;0.30;100.00;101609.16;5014824;28;20030;-70
2023/04/26 04:09:16;;;;;;;16.73;7.57;;;;;;;0.28;100.00;101605.00;4999576;28;20031;-69
2023/04/26 04:11:41;;;;;;;15.05;8.23;;;;;;;0.25;100.00;101610.25;4998838;28;20104;-70
2023/04/26 04:14:07;;;;;;;16.70;8.00;;;;;;;0.22;100.00;101606.09;5001243;28;20061;-69
2023/04/26 04:16:33;;;;;;;19.92;8.70;;;;;;;0.21;100.00;101611.28;4999565;28;20468;-69
2023/04/26 04:18:58;;;;;;;19.20;9.13;;;;;;;0.19;100.00;101612.19;4995732;28;20053;-70
2023/04/26 04:21:23;;;;;;;20.73;7.85;;;;;;;0.22;100.00;101612.94;5003263;28;20095;-69
2023/04/26 04:23:50;;;;;;;17.55;8.02;;;;;;;0.23;100.00;101620.53;4999249;28;20080;-70
2023/04/26 04:26:16;;;;;;;18.60;8.68;;;;;;;0.25;100.00;101625.56;5015021;28;22493;-69
2023/04/26 04:28:41;;;;;;;18.85;8.13;;;;;;;0.26;100.00;101624.66;5001888;28;20412;-69
2023/04/26 04:31:08;;;;;;;20.73;8.38;;;;;;;0.25;100.00;101626.38;4986235;28;20033;-69
2023/04/26 04:33:34;;;;;;;21.92;8.90;;;;;;;0.25;100.00;101623.84;4987028;28;20037;-69
2023/04/26 04:36:00;;;;;;;25.13;9.48;;;;;;;0.22;100.00;101623.16;4997766;28;20030;-69
2023/04/26 04:38:28;;;;;;;20.55;9.82;;;;;;;0.17;100.00;101621.63;4999610;28;20038;-69
2023/04/26 04:40:54;;;;;;;19.05;8.95;;;;;;;0.16;100.00;101625.06;4983246;28;20084;-70
2023/04/26 04:43:20;;;;;;;24.77;10.18;;;;;;;0.12;100.00;101615.09;4980629;28;20547;-69
2023/04/26 04:45:48;;;;;;;20.23;8.23;;;;;;;0.10;100.00;101621.97;4996697;28;20041;-69
2023/04/26 04:48:14;;;;;;;21.17;8.82;;;;;;;0.08;100.00;101624.59;4982940;28;20037;-69
2023/04/26 04:50:42;;;;;;;21.73;8.70;;;;;;;0.08;100.00;101626.31;5014699;28;20038;-69
2023/04/26 04:53:08;;;;;;;18.33;8.50;;;;;;;0.10;100.00;101624.53;5015788;28;20053;-69
2023/04/26 04:55:35;;;;;;;18.33;8.32;;;;;;;0.13;100.00;101629.47;5005334;28;20029;-69
2023/04/26 04:58:02;;;;;;;24.65;8.68;;;;;;;0.17;100.00;101626.75;4982560;28;20113;-69
2023/04/26 05:00:29;;;;;;;18.00;8.82;;;;;;;0.21;100.00;101635.09;5002016;28;20050;-69
2023/04/26 05:03:01;;;;;;;26.67;9.88;;;;;;;0.29;100.00;101632.19;4995763;28;20034;-69
2023/04/26 05:05:27;;;;;;;20.25;9.25;;;;;;;0.33;100.00;101639.63;4996274;28;20420;-70
2023/04/26 05:07:52;;;;;;;30.02;11.32;;;;;;;0.37;100.00;101640.31;4999087;28;20025;-69
2023/04/26 05:10:18;;;;;;;21.77;10.85;;;;;;;0.42;100.00;101640.94;4984533;28;20061;-69
2023/04/26 05:12:45;;;;;;;23.80;10.77;;;;;;;0.48;100.00;101637.28;4987828;28;20030;-70
2023/04/26 05:15:10;;;;;;;24.58;9.88;;;;;;;0.56;100.00;101641.13;4999647;28;20045;-69
2023/04/26 05:17:36;;;;;;;26.35;9.63;;;;;;;0.56;100.00;101643.66;4983527;28;20034;-70
2023/04/26 05:20:16;;;;;;;22.33;10.05;;;;;;;0.61;100.00;101650.31;5000502;28;20443;-70
2023/04/26 05:22:42;;;;;;;31.05;11.45;;;;;;;0.74;100.00;101642.00;4998572;28;20416;-70
2023/04/26 05:25:09;;;;;;;26.70;11.05;;;;;;;0.82;100.00;101649.28;4989010;28;20026;-69
2023/04/26 05:27:36;;;;;;;32.28;11.32;;;;;;;0.85;100.00;101656.81;5004728;28;20053;-70
2023/04/26 05:30:15;;;;;;;35.53;14.23;;;;;;;0.90;100.00;101654.84;4998349;28;20076;-70
2023/04/26 05:32:49;;;;;;;39.00;13.55;;;;;;;1.00;100.00;101659.53;5014714;28;20030;-70
2023/04/26 05:35:32;;;;;;;25.58;10.98;;;;;;;1.11;100.00;101653.03;4987711;28;20034;-70
2023/04/26 05:37:58;;;;;;;27.25;11.48;;;;;;;1.21;100.00;101655.97;4985514;28;20029;-70
2023/04/26 05:40:23;;;;;;;31.45;13.80;;;;;;;1.33;100.00;101660.47;5016834;28;20033;-70
2023/04/26 05:42:50;;;;;;;31.25;13.48;;;;;;;1.48;100.00;101670.84;5000681;28;20033;-70
2023/04/26 05:45:15;;;;;;;29.48;12.00;;;;;;;1.64;100.00;101665.78;5001405;28;20040;-70
2023/04/26 05:47:41;;;;;;;35.53;14.02;;;;;;;1.81;100.00;101667.50;4996024;28;20026;-71
2023/04/26 05:50:07;;;;;;;33.70;12.93;;;;;;;2.00;100.00;101678.47;5002114;28;20030;-70
2023/04/26 05:52:33;;;;;;;34.42;12.48;;;;;;;2.22;100.00;101673.03;4997149;28;20034;-70
2023/04/26 05:55:04;;;;;;;26.23;11.63;;;;;;;2.45;100.00;101673.56;5000367;28;21024;-70
2023/04/26 05:57:30;;;;;;;31.10;12.18;;;;;;;2.76;100.00;101666.78;4987038;28;20128;-70
2023/04/26 05:59:55;;;;;;;26.45;10.80;;;;;;;3.01;100.00;101672.19;4990169;28;20044;-70
2023/04/26 06:02:21;;;;;;;34.63;10.93;;;;;;;3.14;100.00;101671.53;5007290;28;20030;-70
2023/04/26 06:04:47;;;;;;;32.17;10.57;;;;;;;3.42;100.00;101674.16;4990753;28;20053;-70
2023/04/26 06:07:16;;;;;;;36.50;10.95;;;;;;;3.79;100.00;101669.47;5003076;28;20100;-70
2023/04/26 06:09:42;;;;;;;28.35;10.80;;;;;;;4.22;98.45;101671.19;4987984;28;20037;-70
2023/04/26 06:12:07;;;;;;;24.00;10.10;;;;;;;4.53;95.79;101670.13;4990093;28;20037;-70
2023/04/26 06:14:36;;;;;;;21.65;9.88;;;;;;;4.73;94.43;101665.47;4997285;28;23436;-70
2023/04/26 06:17:06;;;;;;;27.77;9.57;;;;;;;4.90;93.63;101670.41;5017860;28;20034;-70
2023/04/26 06:19:32;;;;;;;18.52;8.63;;;;;;;4.98;92.71;101680.19;5002456;28;20034;-70
2023/04/26 06:21:57;;;;;;;18.10;8.75;;;;;;;4.89;91.81;101673.88;5017600;28;20076;-71
2023/04/26 06:24:24;;;;;;;26.73;8.18;;;;;;;4.83;91.37;101675.09;5003038;28;20040;-70
2023/04/26 06:26:50;;;;;;;21.20;7.60;;;;;;;4.85;90.91;101675.00;5005051;28;20038;-71
2023/04/26 06:29:16;;;;;;;17.05;8.00;;;;;;;4.83;89.77;101677.66;4990587;28;20042;-70
2023/04/26 06:31:41;;;;;;;21.65;8.07;;;;;;;4.76;90.21;101681.53;5016791;28;20639;-70
2023/04/26 06:34:08;;;;;;;26.33;7.88;;;;;;;4.81;90.43;101679.50;4989840;28;20478;-70
2023/04/26 06:36:33;;;;;;;26.38;8.65;;;;;;;4.85;90.92;101685.28;5007465;28;20022;-71
2023/04/26 06:38:59;;;;;;;17.52;7.38;;;;;;;5.00;90.50;101686.06;4988921;28;20046;-70
2023/04/26 06:41:25;;;;;;;24.02;7.40;;;;;;;5.12;90.45;101689.56;5002034;28;20091;-70
2023/04/26 06:43:51;;;;;;;20.65;8.00;;;;;;;5.23;89.65;101692.28;5002041;28;20038;-70
2023/04/26 06:46:19;;;;;;;23.48;7.30;;;;;;;5.23;88.95;101682.00;4989017;28;20523;-70
2023/04/26 06:48:53;;;;;;;21.50;8.52;;;;;;;5.35;88.05;101683.78;4986781;28;20037;-71
2023/04/26 06:51:18;;;;;;;21.15;7.88;;;;;;;5.48;87.67;101676.06;5002081;28;20041;-70
2023/04/26 06:53:44;;;;;;;17.17;6.90;;;;;;;5.67;86.17;101678.25;5003648;28;20049;-71
2023/04/26 06:56:09;;;;;;;13.82;6.90;;;;;;;5.73;85.61;101674.44;5005729;28;20038;-71
2023/04/26 06:58:35;;;;;;;16.85;6.03;;;;;;;5.88;84.51;101677.72;5004022;28;20351;-71
2023/04/26 07:01:01;;;;;;;18.83;6.40;;;;;;;6.05;83.99;101677.44;5002971;28;20125;-71
2023/04/26 07:03:26;;;;;;;20.80;7.07;;;;;;;6.23;82.61;101667.63;5018154;28;20029;-71
2023/04/26 07:05:55;;;;;;;19.45;7.40;;;;;;;6.38;81.80;101678.59;5001661;28;20030;-70
2023/04/26 07:08:20;;;;;;;17.65;6.00;;;;;;;6.63;80.76;101678.53;5003506;28;20623;-71
2023/04/26 07:10:46;;;;;;;21.55;8.50;;;;;;;6.91;79.46;101683.47;5006129;28;20037;-71
2023/04/26 07:13:11;;;;;;;28.35;8.57;;;;;;;7.28;77.93;101684.19;5000074;28;20060;-71
2023/04/26 07:15:37;;;;;;;11.90;6.05;;;;;;;7.68;75.96;101686.38;5001334;28;20496;-71
2023/04/26 07:18:02;;;;;;;20.65;7.47;;;;;;;7.98;74.59;101679.84;5000958;28;20175;-71
2023/04/26 07:20:28;;;;;;;21.98;6.78;;;;;;;8.03;72.96;101684.66;5001692;28;20113;-71
2023/04/26 07:22:53;;;;;;;15.98;6.30;;;;;;;7.92;73.44;101680.31;5002104;28;20111;-71
2023/04/26 07:25:19;;;;;;;23.10;6.53;;;;;;;7.93;73.96;101687.13;5023769;23;20113;-72
2023/04/26 07:27:44;;;;;;;17.55;5.97;;;;;;;8.09;73.33;101686.78;5005714;28;20045;-72
2023/04/26 07:30:10;;;;;;;18.15;6.28;;;;;;;8.51;71.14;101684.41;4986241;28;20092;-72
2023/04/26 07:32:36;;;;;;;14.02;5.50;;;;;;;8.96;69.32;101684.25;4991431;28;20472;-71
2023/04/26 07:35:04;;;;;;;19.80;6.03;;;;;;;9.19;68.17;101684.16;4983680;28;20085;-72
2023/04/26 07:37:30;;;;;;;17.58;6.03;;;;;;;9.22;68.21;101681.34;4986451;28;20034;-72
2023/04/26 07:39:55;;;;;;;16.70;5.80;;;;;;;8.97;67.55;101675.56;4967168;28;20107;-71
2023/04/26 07:42:21;;;;;;;18.63;6.15;;;;;;;8.73;67.71;101680.94;4973659;28;20050;-71
2023/04/26 07:44:48;;;;;;;30.65;5.35;;;;;;;8.69;66.32;101677.78;4970672;28;20058;-72
2023/04/26 07:47:13;;;;;;;13.00;3.80;;;;;;;8.67;64.59;101678.84;4986124;28;20096;-72
2023/04/26 07:49:39;;;;;;;14.20;3.78;;;;;;;8.55;65.64;101671.13;4966301;28;20039;-71
2023/04/26 07:52:04;;;;;;;12.50;3.72;;;;;;;8.57;64.61;101679.56;4988035;28;20046;-72
2023/04/26 07:54:30;;;;;;;10.32;4.18;;;;;;;8.58;66.55;101680.38;4970317;28;20034;-72
2023/04/26 07:56:56;;;;;;;17.05;4.57;;;;;;;8.57;66.43;101673.59;4966722;28;20034;-72
2023/04/26 07:59:22;;;;;;;11.80;4.10;;;;;;;8.93;65.07;101674.19;4969679;28;20066;-72
2023/04/26 08:01:48;;;;;;;11.00;3.92;;;;;;;9.32;64.77;101674.44;4952433;28;20019;-72
2023/04/26 08:04:13;;;;;;;17.60;5.25;;;;;;;9.22;63.09;101673.56;4987605;28;20049;-71
2023/04/26 08:06:43;;;;;;;15.20;4.40;;;;;;;8.97;63.98;101675.56;4968400;28;20492;-72
2023/04/26 08:09:10;;;;;;;13.85;5.10;;;;;;;9.03;64.27;101664.72;4969209;28;20066;-71
2023/04/26 08:11:35;;;;;;;10.70;3.97;;;;;;;8.92;65.05;101672.53;4965858;28;20088;-71
2023/04/26 08:14:01;;;;;;;12.32;4.68;;;;;;;8.97;66.01;101665.22;4968910;28;20501;-72
2023/04/26 08:16:26;;;;;;;16.52;4.88;;;;;;;8.68;66.11;101660.63;4984097;28;20065;-71
2023/04/26 08:18:52;;;;;;;13.40;3.83;;;;;;;8.55;65.91;101675.44;4986708;28;20049;-72
2023/04/26 08:21:17;;;;;;;10.45;4.05;;;;;;;8.51;65.25;101669.72;4970401;28;20038;-72
2023/04/26 08:23:43;;;;;;;17.75;4.63;;;;;;;8.74;65.66;101672.25;4986211;28;20046;-72
2023/04/26 08:26:08;;;;;;;9.70;4.00;;;;;;;8.55;66.78;101670.28;4986123;28;20621;-71
2023/04/26 08:28:34;;;;;;;14.18;4.22;;;;;;;8.52;65.31;101678.31;4987286;28;20035;-71
2023/04/26 08:31:00;;;;;;;10.85;3.47;;;;;;;8.71;65.78;101669.91;4970786;28;20382;-72
2023/04/26 08:33:25;;;;;;;12.48;3.90;;;;;;;8.85;64.93;101677.34;4980289;28;20113;-73
2023/04/26 08:35:51;;;;;;;10.57;2.95;;;;;;;9.02;63.01;101677.78;4968170;28;20037;-71
2023/04/26 08:38:17;;;;;;;10.75;2.45;;;;;;;8.73;62.46;101684.34;4984616;28;20443;-71
2023/04/26 08:40:45;;;;;;;9.13;2.78;;;;;;;8.62;62.78;101681.78;4964070;28;20042;-71
2023/04/26 08:43:14;;;;;;;13.95;3.67;;;;;;;8.46;64.22;101683.97;4961093;28;20030;-72
2023/04/26 08:45:40;;;;;;;7.95;2.88;;;;;;;8.62;63.23;101680.97;4968923;28;20113;-72
2023/04/26 08:48:13;;;;;;;11.30;3.63;;;;;;;8.67;63.00;101687.41;4960435;28;20043;-71
2023/04/26 08:50:42;;;;;;;14.00;3.70;;;;;;;8.68;63.53;101680.47;4981207;28;20062;-71
2023/04/26 08:53:10;;;;;;;12.18;3.38;;;;;;;8.63;63.52;101677.47;4981920;28;20640;-71
2023/04/26 08:55:36;;;;;;;7.28;3.20;;;;;;;8.65;63.32;101684.13;4983103;28;20030;-71
2023/04/26 08:58:03;;;;;;;12.20;3.50;;;;;;;8.71;62.12;101688.81;4970379;28;20598;-71
2023/04/26 09:00:29;;;;;;;21.52;3.35;;;;;;;9.17;61.02;101681.69;4986537;28;20511;-72
2023/04/26 09:02:55;;;;;;;10.18;3.40;;;;;;;9.80;61.01;101693.81;4984230;28;20030;-71
2023/04/26 09:05:25;;;;;;;10.18;3.38;;;;;;;10.52;57.39;101682.47;4968729;28;20038;-71
2023/04/26 09:07:55;;;;;;;9.02;3.00;;;;;;;11.34;55.07;101673.47;4962418;28;20034;-71
2023/04/26 09:10:21;;;;;;;9.68;2.65;;;;;;;11.60;51.81;101676.28;4989996;28;20496;-72
2023/04/26 09:12:52;;;;;;;6.00;2.03;;;;;;;11.80;52.20;101678.81;4965299;28;20027;-71
2023/04/26 09:15:20;;;;;;;15.45;2.90;;;;;;;10.56;53.01;101677.84;4956890;28;20521;-71
2023/04/26 09:17:46;;;;;;;11.52;2.97;;;;;;;10.68;54.70;101671.56;4964986;28;20484;-71
2023/04/26 09:20:17;;;;;;;9.07;2.72;;;;;;;10.49;56.34;101662.84;4987437;28;20034;-71
2023/04/26 09:22:44;;;;;;;15.20;3.85;;;;;;;10.45;56.05;101663.22;4984363;28;20034;-71
2023/04/26 09:25:12;;;;;;;5.70;2.25;;;;;;;10.87;55.14;101663.81;4962416;28;20026;-72
2023/04/26 09:27:42;;;;;;;12.55;3.25;;;;;;;11.15;51.96;101663.09;4987932;28;20034;-71
2023/04/26 09:30:16;;;;;;;10.02;2.72;;;;;;;11.46;52.91;101655.94;4952662;28;20567;-71
2023/04/26 09:32:46;;;;;;;11.55;2.67;;;;;;;11.74;50.45;101656.00;4964853;28;20030;-71
2023/04/26 09:35:30;;;;;;;9.10;2.45;;;;;;;11.89;49.71;101654.56;4952198;28;20029;-72
2023/04/26 09:38:01;;;;;;;4.70;1.80;;;;;;;11.53;49.21;101646.63;4967846;28;20518;-72
2023/04/26 09:40:32;;;;;;;9.05;1.75;;;;;;;11.50;48.69;101647.72;4985691;28;20037;-72
2023/04/26 09:42:57;;;;;;;6.25;1.60;;;;;;;11.09;48.80;101654.09;4984646;28;21505;-72
2023/04/26 09:45:24;;;;;;;7.43;2.65;;;;;;;10.94;52.37;101652.88;4969959;28;20112;-71
2023/04/26 09:47:50;;;;;;;18.63;8.32;;;;;;;10.90;51.78;101657.50;4982557;28;20141;-72
2023/04/26 09:50:30;;;;;;;9.93;2.45;;;;;;;11.27;51.29;101649.00;4968748;28;20109;-71
2023/04/26 09:52:56;;;;;;;11.77;1.83;;;;;;;11.36;50.13;101652.53;4969144;28;20038;-71
2023/04/26 09:55:29;;;;;;;6.35;3.20;;;;;;;11.14;49.43;101649.31;4985157;28;20041;-71
2023/04/26 09:57:59;;;;;;;8.90;1.90;;;;;;;10.80;50.68;101651.53;4984366;28;20042;-71
2023/04/26 10:00:26;;;;;;;9.52;2.58;;;;;;;10.86;49.60;101646.59;4986109;28;20034;-71
2023/04/26 10:02:53;;;;;;;8.05;1.88;;;;;;;10.61;48.51;101645.38;4981718;28;21018;-72
2023/04/26 10:05:19;;;;;;;10.27;2.45;;;;;;;10.60;49.31;101648.91;4963440;28;20508;-71
2023/04/26 10:07:46;;;;;;;8.48;2.30;;;;;;;10.49;47.94;101659.41;4967100;28;20389;-71
2023/04/26 10:10:11;;;;;;;5.65;1.15;;;;;;;10.35;48.80;101647.66;4970892;28;20030;-71
2023/04/26 10:12:39;;;;;;;13.77;2.22;;;;;;;10.18;48.48;101656.84;4969705;28;20038;-72
2023/04/26 10:15:07;;;;;;;9.90;1.70;;;;;;;10.25;49.75;101645.00;4988331;28;20121;-72
2023/04/26 10:17:32;;;;;;;6.97;1.83;;;;;;;10.32;51.45;101651.34;4952742;28;20026;-72
2023/04/26 10:19:59;;;;;;;8.13;2.53;;;;;;;10.19;52.52;101650.72;4968225;28;20030;-71
2023/04/26 10:22:29;;;;;;;8.75;2.25;;;;;;;10.06;53.31;101650.16;4986268;28;20469;-71
2023/04/26 10:24:55;;;;;;;8.63;2.17;;;;;;;10.14;52.81;101651.13;4972944;28;20042;-72
2023/04/26 10:27:42;;;;;;;13.43;4.72;;;;;;;10.02;50.81;101652.19;4969300;28;20087;-71
2023/04/26 10:30:10;;;;;;;13.40;4.97;;;;;;;9.91;50.72;101642.72;4952635;28;20519;-71
2023/04/26 10:32:54;;;;;;;8.43;2.63;;;;;;;10.68;50.42;101630.91;4971948;28;20038;-71
2023/04/26 10:35:25;;;;;;;5.82;2.50;;;;;;;11.47;52.16;101629.00;4966521;28;20073;-71
2023/04/26 10:38:05;;;;;;;9.95;2.72;;;;;;;11.56;48.52;101635.13;4964974;28;20103;-71
2023/04/26 10:40:37;;;;;;;6.85;2.20;;;;;;;11.46;49.20;101635.97;4984850;28;20030;-72
2023/04/26 10:43:15;;;;;;;5.80;2.10;;;;;;;11.26;47.12;101629.19;4968513;28;20073;-71
2023/04/26 10:45:43;;;;;;;5.95;2.17;;;;;;;11.26;48.23;101624.00;4989350;28;20138;-71
2023/04/26 10:48:19;;;;;;;5.35;1.98;;;;;;;11.16;48.97;101621.44;4981502;28;20050;-70
2023/04/26 10:51:00;;;;;;;7.28;2.28;;;;;;;11.10;47.31;101622.81;4968857;28;20041;-71
2023/04/26 10:53:52;;;;;;;6.70;1.90;;;;;;;11.02;47.44;101620.09;4953732;28;20500;-71
2023/04/26 10:56:26;;;;;;;5.25;1.90;;;;;;;10.82;48.66;101618.47;4985888;28;20034;-71
2023/04/26 10:59:08;;;;;;;5.82;2.15;;;;;;;10.78;48.24;101628.31;4966575;28;20624;-71
2023/04/26 11:01:33;;;;;;;10.63;2.75;;;;;;;10.57;49.57;101623.25;4968764;28;20030;-72
2023/04/26 11:04:00;;;;;;;9.73;3.28;;;;;;;10.43;49.86;101628.81;4983293;28;20038;-71
2023/04/26 11:06:27;;;;;;;8.75;2.28;;;;;;;10.61;51.08;101627.22;4988482;28;20034;-71
2023/04/26 11:08:53;;;;;;;8.75;2.35;;;;;;;10.44;49.61;101623.50;4968066;28;20045;-71
2023/04/26 11:11:25;;;;;;;8.77;2.25;;;;;;;10.47;51.95;101619.81;4969116;28;20033;-71
2023/04/26 11:13:50;;;;;;;12.57;2.17;;;;;;;10.58;51.32;101624.06;4969756;28;20046;-71
2023/04/26 11:16:16;;;;;;;10.32;1.92;;;;;;;10.65;51.28;101625.16;4971406;28;22654;-71
2023/04/26 11:18:46;;;;;;;8.25;2.10;;;;;;;10.44;51.09;101626.09;4983285;28;20039;-71
2023/04/26 11:21:16;;;;;;;6.75;2.60;;;;;;;10.34;49.81;101622.69;4985956;28;20191;-71